Time;durP1;ratioP1;P1;durP2;ratioP2;P2;SDS_P1;SDS_P2;PMS_P1;PMS_P2;Temp;Humidity;BMP_temperature;BMP_pressure;BME280_temperature;BME280_humidity;BME280_pressure;Samples;Min_cycle;Max_cycle;Signal;HPM_P1;HPM_P2
2023/02/11 00:01:24;;;;;;;41.60;28.07;;;5.40;1.00;;;;;;5034795;28;20817;-61
2023/02/11 00:03:51;;;;;;;39.73;27.47;;;5.40;1.00;;;;;;5034823;28;20562;-62
2023/02/11 00:06:19;;;;;;;39.80;27.63;;;5.50;1.00;;;;;;5034812;28;20944;-60
2023/02/11 00:08:48;;;;;;;39.07;28.10;;;5.50;1.00;;;;;;5034368;28;20459;-60
2023/02/11 00:11:17;;;;;;;43.70;28.13;;;5.50;1.00;;;;;;5034977;28;20492;-60
2023/02/11 00:13:45;;;;;;;55.37;32.70;;;5.50;1.00;;;;;;5034678;28;20488;-58
2023/02/11 00:16:16;;;;;;;46.80;29.10;;;5.50;1.00;;;;;;5035048;28;20927;-59
2023/02/11 00:18:44;;;;;;;51.30;31.80;;;5.50;1.00;;;;;;5034025;28;20497;-58
2023/02/11 00:21:13;;;;;;;67.00;39.50;;;5.50;1.00;;;;;;5034180;28;20571;-57
2023/02/11 00:23:40;;;;;;;55.83;34.10;;;5.50;1.00;;;;;;5033960;28;20553;-60
2023/02/11 00:26:14;;;;;;;70.93;44.50;;;5.50;1.00;;;;;;5034477;28;20470;-58
2023/02/11 00:28:42;;;;;;;70.10;44.60;;;5.50;1.00;;;;;;5033997;28;20523;-60
2023/02/11 00:31:09;;;;;;;78.63;46.10;;;5.60;1.00;;;;;;5034081;28;20512;-61
2023/02/11 00:33:36;;;;;;;45.20;31.57;;;5.50;1.00;;;;;;5033070;28;20463;-61
2023/02/11 00:36:05;;;;;;;44.20;27.30;;;5.50;1.00;;;;;;5034782;28;20470;-61
2023/02/11 00:38:32;;;;;;;36.93;26.53;;;5.50;1.00;;;;;;5034670;28;20460;-59
2023/02/11 00:41:00;;;;;;;39.50;25.30;;;5.60;1.00;;;;;;5033944;28;20561;-61
2023/02/11 00:43:28;;;;;;;38.40;25.80;;;5.60;1.00;;;;;;5034279;28;20466;-61
2023/02/11 00:45:55;;;;;;;36.30;25.23;;;5.60;1.00;;;;;;5034389;28;20816;-61
2023/02/11 00:48:23;;;;;;;35.07;24.40;;;5.50;1.00;;;;;;5034513;28;20500;-60
2023/02/11 00:50:50;;;;;;;34.27;25.37;;;5.50;1.00;;;;;;5034734;28;20551;-60
2023/02/11 00:53:17;;;;;;;35.87;23.87;;;5.50;1.00;;;;;;5037566;28;20487;-57
2023/02/11 00:55:46;;;;;;;33.37;23.30;;;5.60;1.00;;;;;;5037967;28;20549;-59
2023/02/11 00:58:13;;;;;;;38.20;24.57;;;5.50;1.00;;;;;;5037901;28;20499;-60
2023/02/11 01:00:42;;;;;;;37.97;23.57;;;5.60;1.00;;;;;;5037276;28;20998;-61
2023/02/11 01:03:09;;;;;;;35.83;23.17;;;5.60;1.00;;;;;;5037181;28;20512;-60
2023/02/11 01:05:36;;;;;;;34.33;24.93;;;5.60;1.00;;;;;;5037307;28;20470;-61
2023/02/11 01:08:03;;;;;;;40.13;25.17;;;5.60;1.00;;;;;;5037524;28;20810;-61
2023/02/11 01:10:31;;;;;;;32.20;23.37;;;5.50;1.00;;;;;;5037384;28;20948;-59
2023/02/11 01:12:58;;;;;;;34.63;21.83;;;5.50;1.00;;;;;;5037124;28;20465;-60
2023/02/11 01:15:26;;;;;;;33.23;23.27;;;5.50;1.00;;;;;;5037509;28;20997;-61
2023/02/11 01:17:54;;;;;;;36.07;23.27;;;5.50;1.00;;;;;;5037338;28;20876;-61
2023/02/11 01:20:24;;;;;;;36.20;25.30;;;5.50;1.00;;;;;;5037056;28;20574;-61
2023/02/11 01:22:51;;;;;;;37.33;24.17;;;5.60;1.00;;;;;;5037158;28;20470;-61
2023/02/11 01:25:19;;;;;;;30.83;23.57;;;5.60;1.00;;;;;;5037073;28;20802;-61
2023/02/11 01:27:47;;;;;;;33.17;23.83;;;5.60;1.00;;;;;;5037172;28;20489;-61
2023/02/11 01:30:15;;;;;;;37.40;25.30;;;5.60;1.00;;;;;;5037623;28;20495;-62
2023/02/11 01:32:42;;;;;;;34.50;25.03;;;5.60;1.00;;;;;;5037301;28;20470;-60
2023/02/11 01:35:10;;;;;;;32.87;23.40;;;5.60;1.00;;;;;;5036940;28;20567;-61
2023/02/11 01:37:38;;;;;;;36.57;25.90;;;5.60;1.00;;;;;;5036769;28;20509;-62
2023/02/11 01:40:11;;;;;;;35.07;24.27;;;5.60;1.00;;;;;;5035906;28;20498;-60
2023/02/11 01:42:38;;;;;;;36.70;25.80;;;5.60;1.00;;;;;;5036869;28;20498;-60
2023/02/11 01:45:52;;;;;;;35.00;23.97;;;5.50;1.00;;;;;;5036917;28;20464;-62
2023/02/11 01:48:25;;;;;;;34.17;23.97;;;5.50;1.00;;;;;;4975582;28;20457;-60
2023/02/11 01:50:58;;;;;;;34.13;25.10;;;5.50;1.00;;;;;;4975565;28;20469;-60
2023/02/11 01:59:02;;;;;;;33.77;24.57;;;5.60;1.00;;;;;;5036031;28;20993;-61
2023/02/11 02:01:32;;;;;;;36.10;24.63;;;5.60;1.00;;;;;;5036471;28;20546;-60
2023/02/11 02:04:03;;;;;;;32.77;25.67;;;5.60;1.00;;;;;;5036029;28;20465;-61
2023/02/11 02:06:36;;;;;;;32.70;23.90;;;5.60;1.00;;;;;;5036575;28;20581;-62
2023/02/11 02:09:07;;;;;;;31.53;23.57;;;5.60;1.00;;;;;;5036122;28;20463;-59
2023/02/11 02:11:35;;;;;;;33.87;25.00;;;5.60;1.00;;;;;;5036314;28;20496;-61
2023/02/11 02:14:02;;;;;;;33.90;25.20;;;5.60;1.00;;;;;;5036808;28;20819;-59
2023/02/11 02:16:33;;;;;;;35.00;24.13;;;5.60;1.00;;;;;;5036590;28;20557;-59
2023/02/11 02:19:20;;;;;;;35.00;25.33;;;5.60;1.00;;;;;;5036157;28;20494;-59
2023/02/11 02:22:16;;;;;;;35.30;24.13;;;5.60;1.00;;;;;;5036148;28;20467;-58
2023/02/11 02:25:12;;;;;;;32.10;23.10;;;5.60;1.00;;;;;;5036005;28;20465;-61
2023/02/11 02:27:48;;;;;;;33.90;23.73;;;5.50;1.00;;;;;;5036391;28;20832;-61
2023/02/11 02:30:57;;;;;;;33.20;23.67;;;5.50;1.00;;;;;;5036320;28;20463;-61
2023/02/11 02:33:38;;;;;;;34.10;25.17;;;5.50;1.00;;;;;;5033643;28;20558;-58
2023/02/11 02:36:16;;;;;;;34.77;24.40;;;5.50;1.00;;;;;;5036228;28;20467;-59
2023/02/11 02:38:50;;;;;;;38.77;24.47;;;5.50;1.00;;;;;;5035622;28;20466;-61
2023/02/11 02:41:20;;;;;;;34.53;23.87;;;5.50;1.00;;;;;;5035351;28;20954;-59
2023/02/11 02:43:49;;;;;;;38.67;25.70;;;5.50;1.00;;;;;;5036123;28;20593;-61
2023/02/11 02:46:19;;;;;;;35.63;24.27;;;5.50;1.00;;;;;;5035770;28;20463;-60
2023/02/11 02:48:49;;;;;;;37.50;24.33;;;5.50;1.00;;;;;;5035565;28;20467;-60
2023/02/11 02:51:30;;;;;;;35.67;24.30;;;5.50;1.00;;;;;;5035123;28;20759;-58
2023/02/11 02:54:15;;;;;;;36.43;23.20;;;5.50;1.00;;;;;;5034753;28;20936;-60
2023/02/11 02:56:48;;;;;;;39.10;24.63;;;5.50;1.00;;;;;;5035451;28;20562;-61
2023/02/11 02:59:37;;;;;;;37.50;24.63;;;5.50;1.00;;;;;;5035792;28;20444;-60
2023/02/11 03:02:10;;;;;;;32.63;22.70;;;5.40;1.00;;;;;;5035272;28;20539;-60
2023/02/11 03:04:47;;;;;;;40.00;25.90;;;5.40;1.00;;;;;;5030476;28;20471;-58
2023/02/11 03:07:22;;;;;;;40.17;26.93;;;5.40;1.00;;;;;;5015883;28;20554;-60
2023/02/11 03:09:55;;;;;;;31.43;22.77;;;5.40;1.00;;;;;;5024306;28;20553;-59
2023/02/11 03:12:23;;;;;;;35.80;23.87;;;5.30;1.00;;;;;;5034744;28;20494;-59
2023/02/11 03:14:52;;;;;;;33.63;24.10;;;5.30;14.80;;;;;;5033821;28;20489;-60
2023/02/11 03:17:20;;;;;;;33.90;23.17;;;5.30;37.50;;;;;;5027975;28;20783;-59
2023/02/11 03:19:51;;;;;;;38.10;25.73;;;5.30;45.20;;;;;;5015599;28;20487;-62
2023/02/11 03:22:25;;;;;;;38.67;24.87;;;5.20;81.40;;;;;;5016187;28;20555;-59
2023/02/11 03:24:53;;;;;;;42.97;25.43;;;5.30;99.90;;;;;;5035120;28;20455;-60
2023/02/11 03:27:26;;;;;;;39.40;25.50;;;5.20;99.90;;;;;;5035156;28;20558;-61
2023/02/11 03:29:59;;;;;;;38.50;27.37;;;5.20;99.90;;;;;;5035502;28;20562;-60
2023/02/11 03:32:29;;;;;;;39.77;25.80;;;5.20;99.90;;;;;;5034793;28;20554;-58
2023/02/11 03:35:01;;;;;;;40.00;25.37;;;5.20;99.90;;;;;;5034217;28;20959;-60
2023/02/11 03:37:33;;;;;;;37.70;27.20;;;5.20;99.90;;;;;;5034981;28;20557;-58
2023/02/11 03:40:03;;;;;;;37.33;26.03;;;5.20;99.90;;;;;;5035185;28;20491;-61
2023/02/11 03:42:35;;;;;;;45.27;28.47;;;5.20;99.90;;;;;;5035454;28;20588;-62
2023/02/11 03:45:07;;;;;;;41.93;27.47;;;5.20;1.00;;;;;;5032788;28;20561;-61
2023/02/11 03:47:38;;;;;;;43.00;26.47;;;5.10;1.00;;;;;;5015730;28;20464;-60
2023/02/11 03:50:10;;;;;;;41.00;27.50;;;5.10;72.10;;;;;;5035239;28;20923;-61
2023/02/11 03:52:38;;;;;;;39.37;27.20;;;5.10;99.90;;;;;;5034820;28;20880;-61
2023/02/11 03:55:11;;;;;;;41.10;27.00;;;5.10;17.90;;;;;;5033539;28;20491;-61
2023/02/11 03:57:38;;;;;;;40.33;27.50;;;5.10;90.20;;;;;;5034328;28;20558;-60
2023/02/11 04:00:07;;;;;;;54.83;28.07;;;5.00;99.90;;;;;;5034870;28;20905;-58
2023/02/11 04:02:37;;;;;;;40.17;24.63;;;5.00;75.30;;;;;;5035055;28;20895;-59
2023/02/11 04:05:06;;;;;;;47.87;29.40;;;5.00;3.30;;;;;;5034005;28;20562;-62
2023/02/11 04:07:34;;;;;;;46.97;27.60;;;5.00;1.00;;;;;;5034630;28;20467;-61
2023/02/11 04:10:01;;;;;;;44.63;28.67;;;4.90;99.90;;;;;;5034279;28;20837;-62
2023/02/11 04:12:28;;;;;;;42.57;27.40;;;4.90;99.90;;;;;;5035221;28;20899;-61
2023/02/11 04:14:55;;;;;;;41.40;28.47;;;4.90;99.90;;;;;;5033868;28;20463;-61
2023/02/11 04:17:23;;;;;;;46.33;28.63;;;4.90;99.90;;;;;;5034445;28;20834;-62
2023/02/11 04:19:50;;;;;;;41.30;27.60;;;4.90;99.90;;;;;;5035027;28;20495;-60
2023/02/11 04:22:19;;;;;;;40.17;27.53;;;4.90;99.90;;;;;;5033687;28;20542;-61
2023/02/11 04:24:46;;;;;;;40.57;28.73;;;4.90;99.90;;;;;;5034105;28;20442;-61
2023/02/11 04:27:13;;;;;;;39.50;26.13;;;4.90;99.90;;;;;;5032000;28;20939;-59
2023/02/11 04:29:41;;;;;;;43.20;28.80;;;4.90;99.90;;;;;;5034644;28;20558;-62
2023/02/11 04:32:08;;;;;;;37.83;28.20;;;4.90;99.90;;;;;;5034474;28;20620;-62
2023/02/11 04:34:35;;;;;;;43.20;28.67;;;4.90;99.90;;;;;;5034067;28;20943;-62
2023/02/11 04:37:03;;;;;;;42.57;28.17;;;5.00;99.90;;;;;;5033517;28;20959;-62
2023/02/11 04:39:31;;;;;;;44.70;28.80;;;5.00;99.90;;;;;;5033289;28;20836;-60
2023/02/11 04:41:58;;;;;;;40.70;27.30;;;4.90;99.90;;;;;;5033771;28;20548;-60
2023/02/11 04:44:26;;;;;;;41.07;27.97;;;4.90;99.90;;;;;;5034352;28;20471;-62
2023/02/11 04:46:53;;;;;;;43.27;28.03;;;4.90;99.90;;;;;;5033817;28;20467;-61
2023/02/11 04:49:20;;;;;;;43.93;29.50;;;4.90;99.90;;;;;;5033440;28;20463;-62
2023/02/11 04:51:48;;;;;;;42.70;27.90;;;4.90;99.90;;;;;;5034168;28;20517;-61
2023/02/11 04:54:15;;;;;;;43.77;30.40;;;4.90;99.90;;;;;;5033809;28;20585;-62
2023/02/11 04:56:43;;;;;;;51.43;30.43;;;4.90;99.90;;;;;;5034432;28;20543;-62
2023/02/11 04:59:12;;;;;;;46.57;29.33;;;4.90;99.90;;;;;;5033061;28;20558;-61
2023/02/11 05:01:39;;;;;;;47.90;30.70;;;4.90;99.90;;;;;;5033735;28;20491;-62
2023/02/11 05:04:07;;;;;;;50.23;31.00;;;4.90;99.90;;;;;;5034220;28;20958;-62
2023/02/11 05:06:34;;;;;;;40.90;29.10;;;4.80;99.90;;;;;;5034053;28;20459;-63
2023/02/11 05:09:01;;;;;;;44.63;29.40;;;4.80;99.90;;;;;;5033352;28;20550;-63
2023/02/11 05:11:29;;;;;;;41.73;30.07;;;4.80;99.90;;;;;;5034079;28;20765;-63
2023/02/11 05:13:58;;;;;;;49.93;30.90;;;4.80;99.90;;;;;;5033640;28;20524;-63
2023/02/11 05:16:25;;;;;;;46.90;29.80;;;4.80;99.90;;;;;;5033702;28;20843;-63
2023/02/11 05:18:54;;;;;;;49.97;32.77;;;4.80;99.90;;;;;;5033515;28;20460;-63
2023/02/11 05:21:22;;;;;;;49.30;30.13;;;4.80;99.90;;;;;;5033212;28;20838;-63
2023/02/11 05:23:49;;;;;;;53.33;33.10;;;4.80;99.90;;;;;;5032974;28;20505;-63
2023/02/11 05:26:16;;;;;;;53.90;33.70;;;4.80;99.90;;;;;;5032486;28;20689;-63
2023/02/11 05:28:44;;;;;;;47.87;32.00;;;4.70;99.90;;;;;;5031986;28;20898;-63
2023/02/11 05:31:13;;;;;;;58.13;32.10;;;4.80;99.90;;;;;;5031379;28;20474;-63
2023/02/11 05:33:41;;;;;;;52.43;32.30;;;4.80;99.90;;;;;;5033130;28;20895;-62
2023/02/11 05:36:10;;;;;;;56.37;34.57;;;4.80;99.90;;;;;;5032293;28;20467;-61
2023/02/11 05:38:38;;;;;;;45.90;29.40;;;4.80;99.90;;;;;;5034699;28;20463;-62
2023/02/11 05:41:06;;;;;;;49.47;29.57;;;4.70;99.90;;;;;;5034352;28;20491;-61
2023/02/11 05:43:35;;;;;;;50.10;31.50;;;4.70;99.90;;;;;;5035049;28;20510;-59
2023/02/11 05:46:03;;;;;;;46.23;31.13;;;4.70;99.90;;;;;;5035548;28;20916;-61
2023/02/11 05:48:32;;;;;;;49.27;30.97;;;4.70;99.90;;;;;;5035680;28;20463;-60
2023/02/11 05:50:59;;;;;;;48.00;31.70;;;4.70;99.90;;;;;;5034754;28;20469;-60
2023/02/11 05:53:26;;;;;;;48.93;32.13;;;4.70;99.90;;;;;;5034938;28;20493;-58
2023/02/11 05:55:54;;;;;;;46.63;33.30;;;4.80;99.90;;;;;;5036000;28;20463;-59
2023/02/11 05:58:21;;;;;;;47.80;31.70;;;4.80;99.90;;;;;;5036039;28;20452;-60
2023/02/11 06:00:48;;;;;;;52.63;30.43;;;4.80;99.90;;;;;;5035000;28;20495;-59
2023/02/11 06:03:15;;;;;;;48.00;33.10;;;4.70;99.90;;;;;;5034963;28;20498;-61
2023/02/11 06:05:46;;;;;;;45.90;30.90;;;4.80;99.90;;;;;;5035233;28;20974;-60
2023/02/11 06:08:13;;;;;;;45.63;29.63;;;4.80;99.90;;;;;;5035465;28;20468;-61
2023/02/11 06:10:43;;;;;;;44.10;28.83;;;4.80;99.90;;;;;;5034845;28;20496;-61
2023/02/11 06:13:10;;;;;;;46.10;28.53;;;4.80;99.90;;;;;;5035449;28;20477;-61
2023/02/11 06:15:38;;;;;;;39.97;29.13;;;4.80;99.90;;;;;;5036323;28;20469;-61
2023/02/11 06:18:05;;;;;;;41.17;26.57;;;4.80;99.90;;;;;;5036848;28;20565;-61
2023/02/11 06:20:32;;;;;;;34.37;26.50;;;4.80;99.90;;;;;;5036957;28;20573;-62
2023/02/11 06:23:01;;;;;;;40.70;27.70;;;4.80;99.90;;;;;;5034737;28;20546;-62
2023/02/11 06:25:28;;;;;;;38.23;26.43;;;4.80;99.90;;;;;;5035914;28;20469;-62
2023/02/11 06:27:55;;;;;;;48.30;30.17;;;4.80;99.90;;;;;;5035720;28;20441;-62
2023/02/11 06:30:22;;;;;;;40.80;26.40;;;4.80;99.90;;;;;;5021375;28;20498;-63
2023/02/11 06:32:50;;;;;;;39.80;27.87;;;4.90;99.90;;;;;;5018929;28;20476;-63
2023/02/11 06:35:17;;;;;;;38.30;26.20;;;4.80;99.90;;;;;;5036160;28;20550;-62
2023/02/11 06:37:44;;;;;;;37.80;25.63;;;4.80;99.90;;;;;;5035482;28;20463;-62
2023/02/11 06:40:13;;;;;;;38.30;25.83;;;4.80;99.90;;;;;;5034819;28;20467;-63
2023/02/11 06:42:40;;;;;;;35.70;24.20;;;4.90;99.90;;;;;;5035576;28;21022;-63
2023/02/11 06:45:09;;;;;;;38.80;26.17;;;4.80;99.90;;;;;;5035179;28;20557;-63
2023/02/11 06:47:37;;;;;;;37.60;26.07;;;4.80;99.90;;;;;;5035815;28;20471;-63
2023/02/11 06:50:05;;;;;;;38.23;25.30;;;4.90;99.90;;;;;;5034025;28;20470;-63
2023/02/11 06:52:33;;;;;;;37.83;24.10;;;4.90;99.90;;;;;;5035254;28;20562;-63
2023/02/11 06:55:00;;;;;;;33.60;23.40;;;4.90;99.90;;;;;;5032773;28;20495;-63
2023/02/11 06:57:30;;;;;;;37.10;24.03;;;4.90;99.90;;;;;;5033578;28;20469;-63
2023/02/11 06:59:58;;;;;;;34.67;25.40;;;4.90;99.90;;;;;;5033409;28;20917;-64
2023/02/11 07:02:25;;;;;;;39.17;26.23;;;4.90;99.90;;;;;;5032730;28;20487;-64
2023/02/11 07:04:52;;;;;;;39.13;27.63;;;4.90;99.90;;;;;;5030147;28;20475;-64
2023/02/11 07:07:19;;;;;;;40.37;25.67;;;4.90;99.90;;;;;;5032689;28;20546;-64
2023/02/11 07:09:46;;;;;;;40.67;25.67;;;4.90;99.90;;;;;;5034248;28;20486;-65
2023/02/11 07:12:14;;;;;;;43.63;27.07;;;4.90;99.90;;;;;;5036060;28;20558;-65
2023/02/11 07:14:42;;;;;;;41.17;28.27;;;4.90;99.90;;;;;;5034095;28;20487;-65
2023/02/11 07:17:10;;;;;;;44.40;27.17;;;4.90;99.90;;;;;;5035189;28;20557;-66
2023/02/11 07:19:37;;;;;;;50.33;30.80;;;4.90;99.90;;;;;;5035632;28;20546;-65
2023/02/11 07:22:04;;;;;;;42.63;28.07;;;4.90;99.90;;;;;;5035629;28;20497;-66
2023/02/11 07:24:31;;;;;;;48.87;30.37;;;4.90;99.90;;;;;;5035681;28;20470;-66
2023/02/11 07:26:58;;;;;;;55.97;31.43;;;4.90;99.90;;;;;;5034803;28;20557;-66
2023/02/11 07:29:26;;;;;;;51.47;30.50;;;4.90;99.90;;;;;;5034405;28;20455;-66
2023/02/11 07:31:55;;;;;;;53.67;32.27;;;4.90;99.90;;;;;;5034196;28;20554;-66
2023/02/11 07:34:22;;;;;;;59.80;34.73;;;4.90;99.90;;;;;;5035036;28;20434;-66
2023/02/11 07:36:50;;;;;;;50.03;30.93;;;5.00;99.90;;;;;;5032370;28;20550;-66
2023/02/11 07:39:18;;;;;;;62.00;34.30;;;5.00;99.90;;;;;;5032871;28;20463;-66
2023/02/11 07:41:46;;;;;;;61.10;34.77;;;4.90;99.90;;;;;;5033815;28;20821;-67
2023/02/11 07:44:13;;;;;;;60.40;35.80;;;5.00;99.90;;;;;;5033853;28;20466;-66
2023/02/11 07:46:44;;;;;;;70.53;37.37;;;5.00;99.90;;;;;;5032738;28;20935;-66
2023/02/11 07:49:14;;;;;;;65.70;35.40;;;5.00;99.90;;;;;;5033415;28;20509;-66
2023/02/11 07:51:41;;;;;;;66.37;37.00;;;5.00;99.90;;;;;;5031364;28;20448;-66
2023/02/11 07:54:08;;;;;;;70.83;37.77;;;5.00;99.90;;;;;;5033393;28;20479;-66
2023/02/11 07:56:35;;;;;;;71.27;36.07;;;5.00;99.90;;;;;;5032246;28;20484;-66
2023/02/11 07:59:03;;;;;;;68.50;36.70;;;5.00;99.90;;;;;;5033431;28;20463;-66
2023/02/11 08:01:31;;;;;;;73.30;38.07;;;5.10;99.90;;;;;;5032228;28;20494;-66
2023/02/11 08:03:59;;;;;;;67.90;37.90;;;5.00;99.90;;;;;;5029552;28;20459;-66
2023/02/11 08:06:30;;;;;;;67.40;36.43;;;5.00;99.90;;;;;;5032299;28;20939;-66
2023/02/11 08:08:58;;;;;;;68.33;35.10;;;5.00;99.90;;;;;;5033846;28;20847;-66
2023/02/11 08:11:26;;;;;;;74.10;36.10;;;5.00;99.90;;;;;;5034735;28;20558;-66
2023/02/11 08:13:55;;;;;;;67.63;35.20;;;5.10;99.90;;;;;;5034448;28;20824;-66
2023/02/11 08:16:25;;;;;;;70.87;36.80;;;5.10;99.90;;;;;;5033287;28;20554;-66
2023/02/11 08:18:53;;;;;;;76.60;36.13;;;5.10;99.90;;;;;;5032491;28;20550;-66
2023/02/11 08:21:21;;;;;;;73.70;38.30;;;5.10;99.90;;;;;;5032716;28;20784;-66
2023/02/11 08:23:50;;;;;;;72.73;35.87;;;5.00;99.90;;;;;;5032781;28;20470;-66
2023/02/11 08:26:19;;;;;;;69.50;38.63;;;5.10;99.90;;;;;;5033156;28;20516;-66
2023/02/11 08:28:48;;;;;;;71.83;38.10;;;5.00;99.90;;;;;;5032070;28;20842;-66
2023/02/11 08:31:17;;;;;;;75.40;35.80;;;5.10;99.90;;;;;;5034112;28;20471;-66
2023/02/11 08:33:45;;;;;;;72.40;36.50;;;5.00;99.90;;;;;;5034311;28;20470;-66
2023/02/11 08:36:14;;;;;;;72.07;35.83;;;5.10;99.90;;;;;;5034671;28;20512;-66
2023/02/11 08:38:42;;;;;;;76.03;37.10;;;5.10;99.90;;;;;;5033236;28;20542;-66
2023/02/11 08:41:13;;;;;;;59.13;32.93;;;5.20;99.90;;;;;;5033000;28;20463;-66
2023/02/11 08:43:41;;;;;;;73.47;36.40;;;5.10;99.90;;;;;;5031094;28;20503;-66
2023/02/11 08:46:09;;;;;;;83.53;36.03;;;5.20;99.90;;;;;;5032952;28;20926;-65
2023/02/11 08:48:36;;;;;;;84.67;37.30;;;5.20;99.90;;;;;;5033131;28;20467;-66
2023/02/11 08:51:08;;;;;;;94.70;37.70;;;5.20;99.90;;;;;;5033640;28;20951;-66
2023/02/11 08:53:35;;;;;;;93.97;46.43;;;5.20;99.90;;;;;;5034043;28;21005;-66
2023/02/11 08:56:03;;;;;;;83.30;37.70;;;5.30;99.90;;;;;;5034214;28;20486;-66
2023/02/11 08:58:31;;;;;;;74.80;37.77;;;5.20;99.90;;;;;;5034380;28;20579;-65
2023/02/11 09:00:59;;;;;;;82.97;38.17;;;5.30;99.90;;;;;;5032774;28;20468;-66
2023/02/11 09:03:26;;;;;;;77.47;37.80;;;5.30;99.90;;;;;;5033797;28;20492;-66
2023/02/11 09:05:53;;;;;;;98.97;39.70;;;5.20;99.90;;;;;;5034201;28;20566;-66
2023/02/11 09:08:21;;;;;;;86.50;41.33;;;5.30;99.90;;;;;;5034044;28;20463;-66
2023/02/11 09:10:49;;;;;;;77.67;36.33;;;5.30;99.90;;;;;;5032856;28;20566;-66
2023/02/11 09:13:16;;;;;;;82.63;37.70;;;5.30;99.90;;;;;;5034735;28;20486;-66
2023/02/11 09:15:47;;;;;;;79.67;36.67;;;5.40;99.90;;;;;;5034480;28;20459;-66
2023/02/11 09:18:14;;;;;;;83.73;37.33;;;5.40;99.90;;;;;;5034595;28;20451;-66
2023/02/11 09:20:42;;;;;;;76.40;37.70;;;5.40;99.90;;;;;;5033703;28;20841;-66
2023/02/11 09:23:10;;;;;;;82.00;41.17;;;5.40;99.90;;;;;;5033978;28;20491;-66
2023/02/11 09:25:39;;;;;;;82.73;38.10;;;5.40;99.90;;;;;;5031958;28;20964;-66
2023/02/11 09:28:07;;;;;;;75.73;39.63;;;5.40;99.90;;;;;;5034476;28;20459;-66
2023/02/11 09:30:36;;;;;;;78.17;38.10;;;5.50;99.90;;;;;;5031673;28;20712;-66
2023/02/11 09:33:05;;;;;;;74.80;36.57;;;5.50;99.90;;;;;;5034310;28;20463;-66
2023/02/11 09:35:33;;;;;;;77.20;36.80;;;5.50;99.90;;;;;;5033407;28;20562;-66
2023/02/11 09:38:01;;;;;;;79.13;40.17;;;5.50;99.90;;;;;;5034391;28;20459;-66
2023/02/11 09:40:28;;;;;;;71.77;38.47;;;5.50;99.90;;;;;;5034582;28;20466;-66
2023/02/11 09:43:04;;;;;;;74.53;40.90;;;5.50;99.90;;;;;;5034434;28;20527;-66
2023/02/11 09:45:32;;;;;;;82.93;38.90;;;5.60;99.90;;;;;;5031538;28;20467;-66
2023/02/11 09:48:02;;;;;;;83.40;38.83;;;5.50;99.90;;;;;;5033819;28;20773;-65
2023/02/11 09:50:34;;;;;;;91.23;41.83;;;5.60;99.90;;;;;;5033238;28;20463;-65
2023/02/11 09:53:04;;;;;;;79.03;37.30;;;5.60;99.90;;;;;;5034954;28;20565;-66
2023/02/11 09:55:36;;;;;;;85.33;40.97;;;5.50;99.90;;;;;;5034997;28;20911;-66
2023/02/11 09:58:07;;;;;;;87.20;40.00;;;5.60;99.90;;;;;;5036012;28;20926;-66
2023/02/11 10:00:40;;;;;;;80.20;38.70;;;5.70;99.90;;;;;;5036366;28;20550;-66
2023/02/11 10:03:35;;;;;;;91.13;43.07;;;5.70;99.90;;;;;;5035863;28;20491;-65
2023/02/11 10:06:28;;;;;;;79.27;38.70;;;5.70;99.90;;;;;;5034724;28;20433;-66
2023/02/11 10:09:04;;;;;;;84.00;40.37;;;5.70;99.90;;;;;;5035592;28;20934;-66
2023/02/11 10:11:40;;;;;;;96.93;40.67;;;5.70;99.90;;;;;;5035715;28;20497;-65
2023/02/11 10:14:25;;;;;;;82.70;40.13;;;5.70;99.90;;;;;;5036590;28;20483;-65
2023/02/11 10:17:04;;;;;;;80.40;39.60;;;5.60;99.90;;;;;;5036128;28;20562;-65
2023/02/11 10:19:45;;;;;;;84.23;40.00;;;5.70;99.90;;;;;;5035881;28;20470;-65
2023/02/11 10:22:20;;;;;;;79.70;38.47;;;5.60;99.90;;;;;;5036264;28;20585;-65
2023/02/11 10:24:54;;;;;;;76.70;37.77;;;5.70;99.90;;;;;;5035492;28;20488;-65
2023/02/11 10:27:27;;;;;;;81.17;38.17;;;5.70;99.90;;;;;;5035796;28;20478;-65
2023/02/11 10:30:01;;;;;;;86.13;39.90;;;5.70;99.90;;;;;;5034705;28;20760;-65
2023/02/11 10:32:36;;;;;;;77.17;38.73;;;5.70;99.90;;;;;;5035348;28;20463;-66
2023/02/11 10:35:16;;;;;;;92.10;40.27;;;5.80;99.90;;;;;;5035205;28;20471;-65
2023/02/11 10:37:45;;;;;;;90.87;38.63;;;5.80;99.90;;;;;;5034719;28;20569;-66
2023/02/11 10:40:16;;;;;;;78.37;38.30;;;5.90;99.90;;;;;;5034571;28;20759;-66
2023/02/11 10:42:50;;;;;;;88.47;39.80;;;5.80;99.90;;;;;;5035560;28;21018;-66
2023/02/11 10:45:23;;;;;;;75.33;37.20;;;5.80;99.90;;;;;;5036239;28;20561;-66
2023/02/11 10:47:51;;;;;;;84.67;39.00;;;5.80;99.90;;;;;;5035522;28;20513;-65
2023/02/11 10:50:25;;;;;;;76.90;36.07;;;5.80;99.90;;;;;;5034062;28;20761;-66
2023/02/11 10:53:10;;;;;;;74.13;37.73;;;5.80;99.90;;;;;;5036715;27;20459;-66
2023/02/11 10:55:38;;;;;;;95.40;41.67;;;5.90;99.90;;;;;;5033548;28;20461;-66
2023/02/11 10:58:05;;;;;;;75.00;37.97;;;5.90;99.90;;;;;;5033762;28;20472;-66
2023/02/11 11:00:37;;;;;;;81.97;40.87;;;5.90;99.90;;;;;;5034954;28;20466;-66
2023/02/11 11:03:07;;;;;;;83.63;38.80;;;5.90;99.90;;;;;;5034598;28;20495;-65
2023/02/11 11:05:37;;;;;;;80.73;39.00;;;5.90;99.90;;;;;;5035010;28;20917;-66
2023/02/11 11:08:09;;;;;;;92.03;41.63;;;6.00;99.90;;;;;;5035776;28;20542;-65
2023/02/11 11:10:42;;;;;;;74.40;37.77;;;6.00;99.90;;;;;;5034615;28;20487;-65
2023/02/11 11:13:30;;;;;;;84.83;42.07;;;6.00;99.90;;;;;;5034387;28;20891;-66
2023/02/11 11:16:21;;;;;;;77.23;40.27;;;6.00;99.90;;;;;;5033325;28;20467;-65
2023/02/11 11:18:50;;;;;;;79.10;38.90;;;6.00;99.90;;;;;;5028468;28;20467;-65
2023/02/11 11:21:21;;;;;;;101.50;42.03;;;6.00;99.90;;;;;;5030917;28;20892;-66
2023/02/11 11:23:54;;;;;;;87.10;38.33;;;6.10;99.90;;;;;;5030519;28;20772;-65
2023/02/11 11:26:22;;;;;;;80.60;38.70;;;6.10;99.90;;;;;;5031420;28;20454;-66
2023/02/11 11:29:01;;;;;;;84.40;40.57;;;6.10;99.90;;;;;;5031566;28;20463;-65
2023/02/11 11:31:33;;;;;;;96.10;41.17;;;6.10;99.90;;;;;;5030842;28;20498;-65
2023/02/11 11:34:03;;;;;;;91.73;42.47;;;6.10;99.90;;;;;;5031484;28;20978;-65
2023/02/11 11:36:36;;;;;;;94.40;41.53;;;6.10;99.90;;;;;;5029041;28;21347;-65
2023/02/11 11:39:19;;;;;;;92.40;41.57;;;6.20;99.90;;;;;;5031811;28;20512;-65
2023/02/11 11:41:55;;;;;;;105.73;44.80;;;6.20;99.90;;;;;;5028562;28;20926;-67
2023/02/11 11:44:27;;;;;;;84.30;44.17;;;6.20;99.90;;;;;;5027633;28;20457;-68
2023/02/11 11:47:20;;;;;;;84.77;42.23;;;6.20;99.90;;;;;;5025751;28;20442;-68
2023/02/11 11:49:55;;;;;;;99.47;41.50;;;6.30;99.90;;;;;;5028709;28;20922;-67
2023/02/11 11:52:35;;;;;;;82.73;38.80;;;6.30;99.90;;;;;;5029055;28;20550;-68
2023/02/11 11:55:20;;;;;;;95.20;41.23;;;6.40;99.90;;;;;;5028701;28;20970;-68
2023/02/11 11:57:48;;;;;;;100.83;44.20;;;6.40;99.90;;;;;;5029557;28;20463;-68
2023/02/11 12:00:20;;;;;;;90.00;41.67;;;6.30;99.90;;;;;;5029849;28;20440;-68
2023/02/11 12:03:20;;;;;;;97.87;45.63;;;6.40;99.90;;;;;;5029764;28;21000;-68
2023/02/11 12:05:58;;;;;;;81.17;42.60;;;6.40;99.90;;;;;;5031420;28;20499;-68
2023/02/11 12:08:35;;;;;;;102.80;43.73;;;6.40;99.90;;;;;;5029770;28;20510;-68
2023/02/11 12:11:14;;;;;;;88.53;43.77;;;6.50;99.90;;;;;;5032550;28;20471;-68
2023/02/11 12:13:54;;;;;;;99.23;44.00;;;6.40;99.90;;;;;;5030924;28;20541;-68
2023/02/11 12:16:31;;;;;;;95.20;42.60;;;6.50;99.90;;;;;;5031975;28;20483;-68
2023/02/11 12:19:27;;;;;;;91.30;42.43;;;6.60;99.90;;;;;;5031227;28;20919;-68
2023/02/11 12:22:08;;;;;;;93.40;40.90;;;6.60;99.90;;;;;;5004569;28;20554;-68
2023/02/11 12:25:05;;;;;;;87.20;41.33;;;6.60;99.90;;;;;;5028493;28;20892;-68
2023/02/11 12:27:48;;;;;;;85.13;42.00;;;6.60;99.90;;;;;;5024620;28;20570;-68
2023/02/11 12:30:32;;;;;;;88.73;41.17;;;6.60;99.90;;;;;;5029840;28;20455;-68
2023/02/11 12:33:09;;;;;;;77.93;39.77;;;6.70;99.90;;;;;;5031083;28;20462;-68
2023/02/11 12:35:45;;;;;;;83.63;39.17;;;6.70;99.90;;;;;;5032226;28;20501;-68
2023/02/11 12:38:41;;;;;;;85.27;41.80;;;6.70;99.90;;;;;;5029674;28;20585;-68
2023/02/11 12:43:14;;;;;;;80.40;39.50;;;6.60;99.90;;;;;;5023909;28;20786;-68
2023/02/11 12:44:16;;;;;;;76.73;37.00;;;6.60;99.90;;;;;;5013809;28;20495;-68
2023/02/11 12:46:49;;;;;;;80.50;40.07;;;6.60;99.90;;;;;;5039047;28;20465;-67
2023/02/11 12:49:50;;;;;;;78.37;38.93;;;6.60;99.90;;;;;;5045564;28;20471;-67
2023/02/11 12:52:29;;;;;;;71.70;36.90;;;6.60;99.90;;;;;;5007848;27;20854;-67
2023/02/11 12:55:02;;;;;;;80.30;38.10;;;6.50;99.90;;;;;;5019786;28;20793;-67
2023/02/11 12:57:33;;;;;;;88.23;38.80;;;6.50;99.90;;;;;;5025352;27;20460;-67
2023/02/11 13:00:07;;;;;;;74.70;40.90;;;6.50;99.90;;;;;;5036219;28;20455;-67
2023/02/11 13:02:43;;;;;;;83.47;39.83;;;6.60;99.90;;;;;;5039877;28;20569;-67
2023/02/11 13:05:22;;;;;;;81.10;38.83;;;6.60;99.90;;;;;;5034845;27;20477;-67